createdAt,value
2018-09-28T00:02:24.243Z,5.37
2018-09-28T00:04:55.409Z,9.13
2018-09-28T00:07:26.576Z,7.27
2018-09-28T00:10:02.079Z,7.27
2018-09-28T00:12:32.471Z,7.00
2018-09-28T00:15:02.863Z,7.03
2018-09-28T00:17:33.262Z,5.83
2018-09-28T00:20:04.424Z,4.80
2018-09-28T00:22:36.867Z,6.57
2018-09-28T00:27:52.726Z,7.03
2018-09-28T00:30:23.123Z,6.93
2018-09-28T00:32:54.279Z,7.33
2018-09-28T00:35:24.703Z,8.33
2018-09-28T00:37:55.847Z,5.70
2018-09-28T00:40:26.218Z,8.90
2018-09-28T00:42:56.615Z,8.60
2018-09-28T00:45:27.086Z,6.53
2018-09-28T00:47:58.185Z,6.17
2018-09-28T00:50:28.587Z,8.27
2018-09-28T00:52:58.970Z,7.80
2018-09-28T00:55:29.350Z,6.00
2018-09-28T00:57:59.777Z,5.70
2018-09-28T01:00:30.161Z,7.87
2018-09-28T01:03:00.558Z,8.70
2018-09-28T01:05:30.962Z,8.40
2018-09-28T01:08:01.346Z,6.03
2018-09-28T01:10:31.741Z,6.13
2018-09-28T01:13:02.138Z,5.47
2018-09-28T01:15:32.526Z,5.87
2018-09-28T01:18:02.938Z,8.13
2018-09-28T01:20:34.399Z,7.37
2018-09-28T01:23:04.795Z,5.73
2018-09-28T01:25:36.209Z,7.70
2018-09-28T01:28:07.385Z,6.77
2018-09-28T01:30:37.769Z,5.37
2018-09-28T01:33:08.159Z,5.47
2018-09-28T01:35:59.643Z,4.97
2018-09-28T01:38:30.023Z,5.67
2018-09-28T01:41:00.408Z,5.43
2018-09-28T01:43:30.804Z,7.73
2018-09-28T01:46:01.193Z,7.60
2018-09-28T01:48:31.588Z,6.97
2018-09-28T01:51:02.175Z,9.33
2018-09-28T01:53:32.572Z,5.43
2018-09-28T01:56:02.897Z,4.83
2018-09-28T01:58:34.260Z,7.47
2018-09-28T02:01:04.669Z,6.47
2018-09-28T02:03:36.091Z,6.97
2018-09-28T02:06:06.487Z,4.80
2018-09-28T02:08:38.273Z,6.20
2018-09-28T02:11:08.658Z,6.97
2018-09-28T02:13:39.051Z,7.33
2018-09-28T02:16:13.523Z,8.40
2018-09-28T02:18:44.690Z,6.80
2018-09-28T02:21:15.074Z,8.30
2018-09-28T02:23:46.493Z,7.20
2018-09-28T02:26:24.220Z,5.57
2018-09-28T02:28:54.621Z,5.43
2018-09-28T02:31:32.526Z,6.57
2018-09-28T02:34:02.931Z,5.47
2018-09-28T02:36:33.307Z,8.70
2018-09-28T02:39:03.705Z,5.50
2018-09-28T02:41:41.418Z,5.33
2018-09-28T02:44:11.802Z,7.37
2018-09-28T02:46:42.198Z,5.33
2018-09-28T02:49:12.518Z,7.90
2018-09-28T02:51:42.923Z,4.27
2018-09-28T02:54:13.333Z,6.13
2018-09-28T02:56:43.733Z,6.27
2018-09-28T02:59:14.887Z,5.73
2018-09-28T03:01:45.269Z,6.67
2018-09-28T03:04:15.594Z,7.10
2018-09-28T03:06:46.974Z,5.80
2018-09-28T03:09:18.119Z,6.30
2018-09-28T03:11:48.445Z,7.00
2018-09-28T03:14:18.829Z,5.13
2018-09-28T03:16:49.233Z,5.53
2018-09-28T03:19:22.700Z,7.50
2018-09-28T03:21:53.105Z,5.90
2018-09-28T03:24:24.268Z,6.60
2018-09-28T03:26:54.651Z,6.27
2018-09-28T03:29:25.061Z,5.00
2018-09-28T03:31:55.427Z,5.97
2018-09-28T03:34:26.571Z,5.63
2018-09-28T03:36:57.839Z,6.00
2018-09-28T03:39:28.996Z,5.83
2018-09-28T03:41:59.392Z,5.47
2018-09-28T03:44:30.565Z,7.70
2018-09-28T03:47:00.970Z,4.97
2018-09-28T03:49:31.370Z,7.30
2018-09-28T03:52:01.790Z,6.23
2018-09-28T03:54:32.174Z,7.30
2018-09-28T03:57:02.501Z,5.40
2018-09-28T03:59:32.913Z,8.63
2018-09-28T04:02:03.249Z,7.00
2018-09-28T04:04:33.654Z,5.67
2018-09-28T04:07:04.830Z,7.10
2018-09-28T04:09:35.229Z,5.13
2018-09-28T04:12:06.589Z,9.13
2018-09-28T04:14:36.914Z,4.83
2018-09-28T04:17:07.292Z,7.73
2018-09-28T04:19:37.676Z,7.03
2018-09-28T04:22:08.111Z,6.33
2018-09-28T04:24:38.401Z,5.43
2018-09-28T04:27:09.621Z,5.80
2018-09-28T04:29:39.943Z,6.43
2018-09-28T04:32:10.345Z,5.33
2018-09-28T04:34:40.725Z,7.33
2018-09-28T04:37:11.142Z,8.43
2018-09-28T04:39:41.549Z,5.33
2018-09-28T04:42:11.924Z,6.40
2018-09-28T04:47:29.576Z,6.20
2018-09-28T04:50:02.018Z,5.43
2018-09-28T04:52:32.414Z,7.23
2018-09-28T04:55:02.801Z,6.13
2018-09-28T04:57:33.387Z,6.10
2018-09-28T05:00:03.772Z,4.53
2018-09-28T05:02:34.087Z,8.40
2018-09-28T05:05:04.494Z,5.63
2018-09-28T05:07:34.889Z,4.83
2018-09-28T05:10:05.278Z,6.60
2018-09-28T05:12:35.690Z,6.00
2018-09-28T05:15:06.776Z,6.87
2018-09-28T05:17:37.185Z,7.77
2018-09-28T05:20:07.582Z,5.93
2018-09-28T05:22:37.974Z,7.97
2018-09-28T05:25:08.414Z,5.63
2018-09-28T05:27:40.868Z,5.43
2018-09-28T05:30:11.270Z,7.07
2018-09-28T05:32:47.967Z,6.60
2018-09-28T05:35:18.195Z,7.50
2018-09-28T05:37:48.593Z,7.17
2018-09-28T05:40:26.159Z,5.53
2018-09-28T05:42:56.563Z,9.03
2018-09-28T05:45:27.728Z,8.90
2018-09-28T05:48:00.953Z,5.30
2018-09-28T05:50:38.646Z,8.70
2018-09-28T05:53:11.152Z,7.37
2018-09-28T05:55:43.192Z,7.10
2018-09-28T05:58:19.726Z,7.23
2018-09-28T06:00:51.066Z,7.57
2018-09-28T06:03:21.447Z,8.17
2018-09-28T06:05:52.518Z,6.03
2018-09-28T06:08:22.896Z,8.23
2018-09-28T06:10:55.330Z,8.33
2018-09-28T06:13:26.465Z,7.60
2018-09-28T06:15:56.863Z,9.03
2018-09-28T06:18:28.332Z,8.23
2018-09-28T06:20:58.861Z,7.27
2018-09-28T06:23:28.578Z,9.97
2018-09-28T06:25:58.959Z,6.53
2018-09-28T06:28:29.282Z,6.90
2018-09-28T06:30:59.674Z,6.03
2018-09-28T06:33:30.056Z,6.53
2018-09-28T06:36:02.256Z,7.77
2018-09-28T06:38:32.515Z,4.37
2018-09-28T06:41:02.896Z,8.07
2018-09-28T06:43:33.323Z,8.83
2018-09-28T06:46:03.702Z,5.87
2018-09-28T06:48:34.112Z,9.63
2018-09-28T06:51:05.219Z,5.90
2018-09-28T06:53:35.614Z,10.43
2018-09-28T06:56:12.092Z,9.37
2018-09-28T06:59:00.813Z,7.97
2018-09-28T07:01:32.180Z,8.87
2018-09-28T07:04:02.633Z,6.73
2018-09-28T07:06:33.983Z,7.10
2018-09-28T07:09:04.303Z,6.07
2018-09-28T07:11:34.694Z,7.97
2018-09-28T07:14:05.096Z,6.47
2018-09-28T07:16:35.508Z,7.07
2018-09-28T07:19:10.006Z,11.43
2018-09-28T07:21:41.576Z,7.97
2018-09-28T07:24:12.015Z,8.13
2018-09-28T07:26:42.275Z,8.07
2018-09-28T07:29:12.679Z,12.17
2018-09-28T07:31:43.844Z,9.27
2018-09-28T07:34:14.233Z,6.40
2018-09-28T07:36:45.772Z,10.10
2018-09-28T07:39:16.064Z,8.13
2018-09-28T07:41:46.482Z,7.27
2018-09-28T07:44:16.855Z,9.33
2018-09-28T07:46:47.243Z,9.43
2018-09-28T07:49:17.650Z,5.37
2018-09-28T07:51:48.025Z,8.83
2018-09-28T07:54:23.524Z,8.73
2018-09-28T07:56:53.928Z,6.43
2018-09-28T07:59:25.349Z,9.07
2018-09-28T08:01:57.798Z,7.77
2018-09-28T08:04:28.201Z,9.53
2018-09-28T08:06:59.362Z,7.20
2018-09-28T08:09:29.770Z,9.83
2018-09-28T08:12:00.963Z,10.87
2018-09-28T08:14:31.335Z,9.20
2018-09-28T08:17:02.501Z,10.00
2018-09-28T08:19:32.917Z,6.97
2018-09-28T08:22:03.312Z,8.47
2018-09-28T08:24:33.705Z,8.03
2018-09-28T08:27:06.089Z,11.90
2018-09-28T08:29:55.859Z,12.13
2018-09-28T08:32:47.441Z,11.30
2018-09-28T08:35:18.579Z,9.90
2018-09-28T08:37:48.964Z,8.70
2018-09-28T08:40:19.366Z,9.47
2018-09-28T08:42:49.761Z,8.87
2018-09-28T08:45:20.145Z,8.43
2018-09-28T08:47:50.543Z,7.07
2018-09-28T08:50:20.923Z,7.77
2018-09-28T08:52:51.257Z,6.90
2018-09-28T08:55:22.406Z,6.33
2018-09-28T08:57:52.725Z,10.40
2018-09-28T09:03:10.375Z,9.63
2018-09-28T09:05:41.555Z,6.33
2018-09-28T09:08:11.941Z,7.90
2018-09-28T09:10:42.414Z,10.33
2018-09-28T09:13:12.802Z,8.67
2018-09-28T09:15:43.183Z,7.13
2018-09-28T09:18:20.920Z,7.53
2018-09-28T09:20:58.619Z,9.97
2018-09-28T09:23:29.035Z,8.37
2018-09-28T09:25:59.443Z,7.47
2018-09-28T09:28:35.977Z,11.10
2018-09-28T09:31:07.384Z,10.80
2018-09-28T09:33:37.785Z,11.13
2018-09-28T09:36:08.188Z,9.93
2018-09-28T09:38:38.583Z,7.03
2018-09-28T09:41:08.974Z,10.27
2018-09-28T09:43:39.312Z,7.77
2018-09-28T09:46:09.709Z,8.17
2018-09-28T09:48:40.092Z,8.03
2018-09-28T09:51:10.504Z,10.90
2018-09-28T09:53:40.907Z,10.90
2018-09-28T09:56:11.326Z,9.70
2018-09-28T09:58:41.735Z,12.60
2018-09-28T10:01:12.142Z,8.57
2018-09-28T10:03:42.541Z,11.30
2018-09-28T10:06:12.882Z,11.13
2018-09-28T10:08:43.269Z,9.93
2018-09-28T10:11:13.666Z,12.73
2018-09-28T10:13:44.073Z,10.83
2018-09-28T10:16:15.222Z,8.20
2018-09-28T10:18:45.614Z,7.07
2018-09-28T10:21:16.023Z,10.67
2018-09-28T10:23:46.385Z,20.37
2018-09-28T10:26:16.785Z,15.23
2018-09-28T10:28:47.182Z,11.97
2018-09-28T10:31:17.574Z,10.87
2018-09-28T10:33:47.970Z,11.47
2018-09-28T10:36:18.367Z,13.03
2018-09-28T10:38:48.768Z,9.37
2018-09-28T10:41:19.873Z,12.83
2018-09-28T10:43:50.287Z,12.53
2018-09-28T10:46:20.636Z,13.50
2018-09-28T10:48:51.796Z,15.53
2018-09-28T10:51:22.341Z,16.80
2018-09-28T10:53:52.602Z,16.20
2018-09-28T10:56:22.987Z,13.70
2018-09-28T10:58:53.536Z,13.93
2018-09-28T11:01:23.999Z,18.00
2018-09-28T11:03:54.397Z,15.10
2018-09-28T11:06:24.801Z,14.07
2018-09-28T11:08:55.283Z,16.90
2018-09-28T11:11:25.588Z,16.07
2018-09-28T11:13:58.895Z,14.43
2018-09-28T11:16:29.297Z,18.43
2018-09-28T11:19:01.811Z,16.47
2018-09-28T11:21:32.169Z,17.13
2018-09-28T11:24:03.314Z,17.33
2018-09-28T11:26:33.708Z,18.77
2018-09-28T11:29:04.127Z,17.23
2018-09-28T11:31:34.502Z,16.07
2018-09-28T11:34:04.912Z,15.43
2018-09-28T11:36:36.088Z,16.40
2018-09-28T11:39:06.453Z,16.47
2018-09-28T11:41:37.444Z,14.07
2018-09-28T11:44:07.841Z,14.33
2018-09-28T11:46:38.253Z,12.90
2018-09-28T11:49:08.694Z,15.53
2018-09-28T11:51:39.039Z,17.03
2018-09-28T11:54:10.171Z,17.10
2018-09-28T11:56:41.328Z,15.37
2018-09-28T11:59:13.155Z,15.60
2018-09-28T12:01:43.556Z,14.40
2018-09-28T12:04:14.960Z,17.33
2018-09-28T12:09:30.471Z,16.53
2018-09-28T12:12:00.830Z,16.80
2018-09-28T12:14:33.934Z,18.23
2018-09-28T12:17:04.338Z,15.70
2018-09-28T12:19:43.962Z,18.73
2018-09-28T12:22:14.344Z,15.90
2018-09-28T12:24:44.718Z,17.20
2018-09-28T12:27:17.732Z,16.43
2018-09-28T12:29:48.062Z,18.30
2018-09-28T12:32:18.459Z,16.50
2018-09-28T12:34:48.872Z,16.47
2018-09-28T12:37:19.262Z,15.53
2018-09-28T12:39:49.779Z,16.20
2018-09-28T12:42:22.164Z,19.00
2018-09-28T12:44:52.553Z,18.07
2018-09-28T12:47:23.686Z,16.50
2018-09-28T12:49:54.107Z,16.80
2018-09-28T12:52:24.433Z,17.53
2018-09-28T12:54:54.833Z,18.60
2018-09-28T12:57:26.011Z,17.97
2018-09-28T12:59:58.462Z,16.67
2018-09-28T13:02:28.902Z,16.37
2018-09-28T13:04:59.283Z,16.10
2018-09-28T13:07:29.702Z,17.97
2018-09-28T13:10:00.108Z,20.93
2018-09-28T13:12:36.654Z,22.17
2018-09-28T13:15:07.102Z,17.03
2018-09-28T13:17:37.561Z,18.23
2018-09-28T13:20:07.978Z,19.17
2018-09-28T13:22:45.520Z,19.90
2018-09-28T13:25:15.921Z,21.63
2018-09-28T13:27:48.748Z,22.03
2018-09-28T13:30:19.247Z,21.47
2018-09-28T13:32:53.200Z,22.23
2018-09-28T13:35:23.502Z,19.13
2018-09-28T13:37:56.438Z,19.77
2018-09-28T13:40:29.545Z,20.77
2018-09-28T13:42:59.930Z,18.07
2018-09-28T13:45:34.541Z,22.70
2018-09-28T13:48:04.819Z,19.83
2018-09-28T13:50:37.268Z,17.37
2018-09-28T13:53:11.755Z,17.83
2018-09-28T13:55:42.143Z,14.97
2018-09-28T13:58:12.564Z,20.23
2018-09-28T14:00:45.792Z,17.57
2018-09-28T14:03:16.090Z,13.47
2018-09-28T14:05:46.667Z,15.60
2018-09-28T14:08:18.156Z,13.37
2018-09-28T14:10:54.988Z,14.00
2018-09-28T14:13:25.384Z,12.70
2018-09-28T14:16:00.719Z,12.13
2018-09-28T14:18:31.132Z,15.40
2018-09-28T14:21:01.540Z,12.03
2018-09-28T14:23:31.916Z,13.57
2018-09-28T14:28:56.654Z,13.57
2018-09-28T14:31:26.923Z,12.83
2018-09-28T14:33:57.323Z,11.90
2018-09-28T14:36:31.849Z,12.03
2018-09-28T14:39:02.127Z,13.40
2018-09-28T14:41:33.339Z,10.77
2018-09-28T14:44:03.722Z,9.77
2018-09-28T14:46:34.192Z,9.83
2018-09-28T14:49:05.429Z,13.17
2018-09-28T14:51:35.696Z,10.40
2018-09-28T14:54:06.988Z,13.23
2018-09-28T14:56:40.131Z,10.73
2018-09-28T14:59:14.166Z,11.00
2018-09-28T15:01:44.539Z,9.97
2018-09-28T15:04:14.973Z,11.00
2018-09-28T15:06:52.768Z,10.27
2018-09-28T15:09:23.005Z,8.70
2018-09-28T15:11:53.397Z,12.27
2018-09-28T15:14:28.068Z,9.10
2018-09-28T15:16:58.347Z,9.97
2018-09-28T15:19:28.736Z,9.37
2018-09-28T15:21:59.153Z,9.33
2018-09-28T15:24:30.245Z,10.20
2018-09-28T15:27:09.574Z,9.60
2018-09-28T15:29:40.013Z,9.30
2018-09-28T15:32:11.131Z,12.33
2018-09-28T15:34:42.234Z,11.13
2018-09-28T15:37:13.255Z,11.37
2018-09-28T15:39:43.640Z,11.20
2018-09-28T15:42:16.712Z,7.00
2018-09-28T15:44:47.102Z,9.80
2018-09-28T15:47:17.487Z,6.87
2018-09-28T15:49:47.876Z,8.23
2018-09-28T15:52:19.035Z,9.47
2018-09-28T15:54:50.191Z,8.40
2018-09-28T15:57:21.230Z,9.03
2018-09-28T15:59:51.626Z,10.80
2018-09-28T16:02:22.033Z,11.50
2018-09-28T16:04:52.448Z,8.63
2018-09-28T16:07:25.398Z,11.17
2018-09-28T16:09:58.538Z,9.07
2018-09-28T16:12:28.943Z,7.87
2018-09-28T16:15:02.320Z,9.80
2018-09-28T16:17:32.702Z,11.30
2018-09-28T16:20:06.822Z,9.37
2018-09-28T16:22:37.207Z,8.50
2018-09-28T16:25:09.665Z,9.10
2018-09-28T16:27:40.072Z,8.27
2018-09-28T16:30:10.403Z,8.00
2018-09-28T17:56:06.557Z,9.10
2018-09-28T17:58:37.226Z,8.40
2018-09-28T18:01:07.636Z,12.37
2018-09-28T18:03:38.798Z,8.47
2018-09-28T18:06:09.209Z,11.43
2018-09-28T18:08:40.361Z,10.67
2018-09-28T18:11:10.753Z,11.53
2018-09-28T18:13:41.158Z,16.47
2018-09-28T18:16:11.559Z,12.37
2018-09-28T18:18:41.984Z,11.80
2018-09-28T18:21:12.489Z,11.60
2018-09-28T18:23:43.639Z,10.53
2018-09-28T18:26:14.047Z,12.00
2018-09-28T18:28:44.447Z,10.23
2018-09-28T18:31:14.841Z,9.87
2018-09-28T18:33:45.242Z,7.97
2018-09-28T18:36:16.395Z,10.47
2018-09-28T18:38:46.789Z,7.37
2018-09-28T18:41:17.174Z,7.77
2018-09-28T18:43:54.895Z,9.63
2018-09-28T18:46:27.338Z,8.17
2018-09-28T18:48:57.739Z,4.93
2018-09-28T18:51:28.912Z,8.60
2018-09-28T18:54:02.225Z,9.90
2018-09-28T18:56:32.622Z,6.90
2018-09-28T18:59:03.013Z,7.30
2018-09-28T19:01:34.225Z,11.13
2018-09-28T19:04:04.537Z,7.43
2018-09-28T19:06:39.029Z,10.83
2018-09-28T19:09:13.019Z,10.03
2018-09-28T19:11:43.675Z,10.73
2018-09-28T19:14:14.821Z,7.60
2018-09-28T19:16:47.681Z,7.67
2018-09-28T19:19:18.072Z,8.23
2018-09-28T19:21:50.444Z,7.00
2018-09-28T19:24:20.829Z,6.20
2018-09-28T19:26:52.014Z,7.93
2018-09-28T19:29:24.452Z,9.13
2018-09-28T19:31:54.853Z,8.80
2018-09-28T19:34:25.239Z,8.80
2018-09-28T19:36:55.626Z,7.90
2018-09-28T19:39:26.783Z,7.17
2018-09-28T19:41:57.196Z,7.30
2018-09-28T19:44:28.273Z,8.67
2018-09-28T19:46:58.674Z,4.77
2018-09-28T19:49:29.071Z,6.40
2018-09-28T19:51:59.498Z,7.57
2018-09-28T19:54:29.882Z,7.13
2018-09-28T19:57:02.341Z,5.30
2018-09-28T19:59:32.661Z,7.40
2018-09-28T20:02:02.981Z,9.20
2018-09-28T20:04:33.382Z,7.67
2018-09-28T20:07:06.508Z,6.87
2018-09-28T20:09:36.837Z,6.93
2018-09-28T20:12:07.170Z,9.43
2018-09-28T20:14:41.663Z,12.10
2018-09-28T20:17:12.823Z,8.90
2018-09-28T20:19:45.714Z,8.57
2018-09-28T20:22:16.110Z,8.97
2018-09-28T20:24:47.204Z,4.47
2018-09-28T20:27:22.918Z,10.33
2018-09-28T20:29:53.299Z,8.43
2018-09-28T20:32:23.685Z,7.70
2018-09-28T20:34:54.101Z,10.53
2018-09-28T20:37:24.414Z,7.87
2018-09-28T20:39:55.590Z,10.57
2018-09-28T20:42:25.989Z,6.43
2018-09-28T20:44:56.399Z,9.50
2018-09-28T20:47:26.794Z,7.03
2018-09-28T20:49:58.210Z,8.33
2018-09-28T20:52:28.596Z,11.20
2018-09-28T20:54:59.997Z,7.43
2018-09-28T20:57:30.455Z,7.47
2018-09-28T21:00:03.615Z,7.90
2018-09-28T21:02:34.002Z,6.93
2018-09-28T21:07:50.953Z,6.50
2018-09-28T21:10:23.943Z,7.50
2018-09-28T21:12:59.797Z,8.33
2018-09-28T21:15:35.666Z,8.50
2018-09-28T21:18:11.551Z,8.33
2018-09-28T21:21:02.073Z,8.80
2018-09-28T21:23:32.468Z,7.97
2018-09-28T21:26:11.769Z,9.20
2018-09-28T21:28:42.164Z,7.57
2018-09-28T21:31:15.009Z,6.50
2018-09-28T21:33:52.589Z,7.67
2018-09-28T21:36:25.658Z,9.17
2018-09-28T21:38:56.058Z,10.80
2018-09-28T21:41:26.456Z,6.47
2018-09-28T21:43:57.870Z,6.93
2018-09-28T21:46:28.449Z,7.73
2018-09-28T21:48:58.846Z,8.50
2018-09-28T21:51:29.243Z,7.37
2018-09-28T21:53:59.638Z,5.53
2018-09-28T21:56:30.046Z,6.53
2018-09-28T21:59:21.861Z,9.63
2018-09-28T22:01:53.290Z,9.03
2018-09-28T22:04:23.684Z,5.30
2018-09-28T22:06:54.078Z,4.87
2018-09-28T22:09:27.566Z,5.20
2018-09-28T22:12:03.062Z,7.93
2018-09-28T22:14:33.465Z,6.60
2018-09-28T22:17:03.854Z,8.47
2018-09-28T22:19:34.231Z,5.33
2018-09-28T22:22:04.625Z,6.97
2018-09-28T22:24:35.011Z,6.87
2018-09-28T22:27:06.162Z,6.80
2018-09-28T22:29:36.559Z,3.70
2018-09-28T22:32:06.939Z,8.57
2018-09-28T22:34:39.366Z,7.00
2018-09-28T22:37:10.522Z,9.40
2018-09-28T22:39:41.680Z,7.77
2018-09-28T22:42:12.082Z,6.13
2018-09-28T22:44:43.249Z,6.60
2018-09-28T22:47:13.638Z,7.73
2018-09-28T22:49:44.015Z,5.73
2018-09-28T22:52:14.345Z,6.50
2018-09-28T22:54:44.724Z,5.80
2018-09-28T22:57:15.102Z,7.63
2018-09-28T22:59:48.584Z,5.17
2018-09-28T23:02:18.962Z,6.40
2018-09-28T23:04:49.357Z,5.73
2018-09-28T23:07:19.756Z,4.10
2018-09-28T23:09:50.148Z,7.77
2018-09-28T23:12:20.526Z,4.47
2018-09-28T23:14:50.863Z,6.77
2018-09-28T23:17:26.292Z,4.00
2018-09-28T23:19:56.675Z,5.63
2018-09-28T23:22:27.070Z,7.40
2018-09-28T23:24:59.489Z,5.13
2018-09-28T23:27:30.861Z,4.80
2018-09-28T23:30:01.236Z,5.43
2018-09-28T23:32:31.620Z,3.87
2018-09-28T23:35:01.947Z,5.53
2018-09-28T23:37:32.331Z,6.57
2018-09-28T23:40:03.746Z,7.67
2018-09-28T23:42:53.508Z,4.83
2018-09-28T23:45:23.890Z,9.17
2018-09-28T23:47:54.273Z,8.80
2018-09-28T23:50:43.016Z,8.37
2018-09-28T23:53:13.414Z,8.17
2018-09-28T23:55:44.562Z,8.77
2018-09-28T23:58:15.739Z,5.13
